Time;durP1;ratioP1;P1;durP2;ratioP2;P2;SDS_P1;SDS_P2;PMS_P1;PMS_P2;Temp;Humidity;BMP_temperature;BMP_pressure;BME280_temperature;BME280_humidity;BME280_pressure;Samples;Min_cycle;Max_cycle;Signal;HPM_P1;HPM_P2
2024/01/02 00:01:52;;;;;;;5.63;0.40;;;;;;;;;;4969147;28;20065;-57
2024/01/02 00:04:20;;;;;;;8.52;0.65;;;;;;;;;;4976689;28;20065;-56
2024/01/02 00:06:48;;;;;;;6.50;0.90;;;;;;;;;;4954834;28;20038;-56
2024/01/02 00:09:16;;;;;;;6.83;0.67;;;;;;;;;;4965255;28;20046;-56
2024/01/02 00:11:44;;;;;;;7.35;0.75;;;;;;;;;;4907519;28;20347;-56
2024/01/02 00:14:11;;;;;;;9.70;1.60;;;;;;;;;;4951009;28;20049;-54
2024/01/02 00:16:41;;;;;;;16.10;1.02;;;;;;;;;;4959073;28;20722;-56
2024/01/02 00:19:09;;;;;;;21.95;1.90;;;;;;;;;;4978046;28;20046;-56
2024/01/02 00:21:37;;;;;;;8.37;1.40;;;;;;;;;;4955060;28;20129;-57
2024/01/02 00:24:06;;;;;;;9.13;1.60;;;;;;;;;;4984551;28;20096;-55
2024/01/02 00:26:34;;;;;;;14.90;1.48;;;;;;;;;;4948990;28;20353;-55
2024/01/02 00:29:02;;;;;;;17.30;1.25;;;;;;;;;;4973725;28;20619;-55
2024/01/02 00:31:30;;;;;;;17.50;2.67;;;;;;;;;;4962699;28;20692;-54
2024/01/02 00:33:59;;;;;;;22.80;1.90;;;;;;;;;;4903578;28;20038;-54
2024/01/02 00:36:27;;;;;;;14.05;1.55;;;;;;;;;;4967874;28;20565;-55
2024/01/02 00:38:55;;;;;;;10.52;1.83;;;;;;;;;;4968020;28;20054;-54
2024/01/02 00:41:25;;;;;;;8.80;1.48;;;;;;;;;;4978221;28;20088;-49
2024/01/02 00:43:53;;;;;;;16.33;1.50;;;;;;;;;;4956036;28;20715;-53
2024/01/02 00:46:21;;;;;;;12.50;1.70;;;;;;;;;;4982810;28;20041;-52
2024/01/02 00:49:08;;;;;;;14.48;1.30;;;;;;;;;;4961264;28;20190;-53
2024/01/02 00:51:35;;;;;;;12.57;1.50;;;;;;;;;;4975574;28;20044;-52
2024/01/02 00:54:03;;;;;;;18.65;1.95;;;;;;;;;;4965109;28;20049;-54
2024/01/02 00:56:31;;;;;;;15.77;2.45;;;;;;;;;;4971812;28;20053;-54
2024/01/02 00:58:58;;;;;;;13.87;2.00;;;;;;;;;;4981036;28;20045;-53
2024/01/02 01:01:26;;;;;;;13.95;2.17;;;;;;;;;;4971742;28;20073;-54
2024/01/02 01:03:55;;;;;;;13.45;1.17;;;;;;;;;;4955490;28;20048;-52
2024/01/02 01:06:24;;;;;;;9.43;1.25;;;;;;;;;;4968786;28;20092;-53
2024/01/02 01:08:52;;;;;;;20.65;2.70;;;;;;;;;;4970976;28;20088;-53
2024/01/02 01:11:20;;;;;;;16.50;1.50;;;;;;;;;;4965051;28;20064;-55
2024/01/02 01:13:48;;;;;;;18.20;2.25;;;;;;;;;;4962330;28;21024;-52
2024/01/02 01:16:16;;;;;;;14.68;1.75;;;;;;;;;;4956353;28;20041;-56
2024/01/02 01:18:45;;;;;;;27.33;2.42;;;;;;;;;;4981393;28;20042;-55
2024/01/02 01:21:12;;;;;;;18.35;1.75;;;;;;;;;;4960789;28;20738;-53
2024/01/02 01:23:41;;;;;;;18.90;1.47;;;;;;;;;;4970860;28;20065;-52
2024/01/02 01:26:09;;;;;;;15.65;1.73;;;;;;;;;;4970549;28;20145;-55
2024/01/02 01:28:37;;;;;;;17.05;1.50;;;;;;;;;;4968637;28;20050;-51
2024/01/02 01:31:05;;;;;;;16.90;1.70;;;;;;;;;;4964610;28;20046;-55
2024/01/02 01:33:33;;;;;;;17.73;2.53;;;;;;;;;;4929130;28;20049;-51
2024/01/02 01:36:01;;;;;;;21.90;2.93;;;;;;;;;;4942586;28;20128;-55
2024/01/02 01:38:28;;;;;;;13.85;2.42;;;;;;;;;;4975506;28;20038;-53
2024/01/02 01:40:58;;;;;;;17.77;2.28;;;;;;;;;;4961724;28;21098;-56
2024/01/02 01:43:25;;;;;;;17.13;2.10;;;;;;;;;;4981467;28;20046;-51
2024/01/02 01:45:53;;;;;;;22.67;2.28;;;;;;;;;;4970464;28;20339;-53
2024/01/02 01:48:22;;;;;;;22.40;2.03;;;;;;;;;;4980859;28;20045;-56
2024/01/02 01:50:50;;;;;;;18.55;2.67;;;;;;;;;;4957911;28;20607;-54
2024/01/02 01:53:18;;;;;;;19.63;2.75;;;;;;;;;;4980862;28;20049;-55
2024/01/02 01:55:46;;;;;;;22.67;1.98;;;;;;;;;;4975236;28;20042;-49
2024/01/02 01:58:15;;;;;;;20.20;2.30;;;;;;;;;;4984609;28;20061;-54
2024/01/02 02:00:43;;;;;;;31.97;2.63;;;;;;;;;;4973279;28;20666;-50
2024/01/02 02:03:11;;;;;;;26.15;3.58;;;;;;;;;;4981401;28;20041;-55
2024/01/02 02:05:39;;;;;;;24.88;2.38;;;;;;;;;;4962559;28;20428;-52
2024/01/02 02:08:06;;;;;;;25.90;3.22;;;;;;;;;;4983589;28;20065;-53
2024/01/02 02:10:34;;;;;;;25.25;2.40;;;;;;;;;;4968128;28;20084;-54
2024/01/02 02:13:06;;;;;;;20.33;2.47;;;;;;;;;;4977632;28;21420;-55
2024/01/02 02:15:38;;;;;;;24.20;2.35;;;;;;;;;;4989230;28;20041;-55
2024/01/02 02:18:06;;;;;;;18.88;3.13;;;;;;;;;;4966878;28;20107;-53
2024/01/02 02:20:34;;;;;;;17.55;3.03;;;;;;;;;;4944378;28;20489;-54
2024/01/02 02:23:04;;;;;;;26.38;2.80;;;;;;;;;;4983287;28;20046;-56
2024/01/02 02:25:32;;;;;;;19.17;3.00;;;;;;;;;;4947278;28;20563;-51
2024/01/02 02:27:59;;;;;;;18.52;2.08;;;;;;;;;;4957873;28;20464;-52
2024/01/02 02:30:27;;;;;;;15.07;2.17;;;;;;;;;;4972193;28;20050;-52
2024/01/02 02:32:55;;;;;;;15.90;2.03;;;;;;;;;;4935388;28;20270;-53
2024/01/02 02:35:23;;;;;;;20.83;2.65;;;;;;;;;;4936519;28;20081;-55
2024/01/02 02:37:50;;;;;;;21.90;3.17;;;;;;;;;;4959668;28;20193;-56
2024/01/02 02:40:20;;;;;;;21.27;3.47;;;;;;;;;;4967947;28;20064;-54
2024/01/02 02:42:50;;;;;;;19.25;2.65;;;;;;;;;;4975691;28;20049;-52
2024/01/02 02:45:19;;;;;;;24.13;2.47;;;;;;;;;;4962746;28;20080;-52
2024/01/02 02:47:47;;;;;;;24.77;3.03;;;;;;;;;;4944945;28;20061;-54
2024/01/02 02:50:15;;;;;;;16.20;2.83;;;;;;;;;;4987917;28;20054;-53
2024/01/02 02:52:43;;;;;;;30.58;2.97;;;;;;;;;;4976259;28;20073;-55
2024/01/02 02:55:18;;;;;;;24.92;3.38;;;;;;;;;;4931532;28;20133;-57
2024/01/02 02:57:48;;;;;;;12.60;1.45;;;;;;;;;;4968524;28;20108;-53
2024/01/02 03:00:16;;;;;;;18.55;2.25;;;;;;;;;;4974286;28;20284;-54
2024/01/02 03:02:44;;;;;;;26.27;2.80;;;;;;;;;;4973268;28;20029;-52
2024/01/02 03:05:14;;;;;;;18.65;2.75;;;;;;;;;;4976105;28;20042;-57
2024/01/02 03:07:42;;;;;;;25.08;2.90;;;;;;;;;;4959440;28;20042;-52
2024/01/02 03:10:13;;;;;;;26.52;3.13;;;;;;;;;;4962199;28;20042;-53
2024/01/02 03:12:42;;;;;;;30.67;3.05;;;;;;;;;;4968495;28;20480;-54
2024/01/02 03:15:28;;;;;;;23.93;2.63;;;;;;;;;;4960359;28;20097;-55
2024/01/02 03:17:57;;;;;;;27.92;3.17;;;;;;;;;;4934201;28;20077;-55
2024/01/02 03:20:25;;;;;;;23.48;3.50;;;;;;;;;;4969007;28;24499;-50
2024/01/02 03:22:55;;;;;;;20.02;2.50;;;;;;;;;;4967599;28;20635;-52
2024/01/02 03:25:23;;;;;;;24.05;3.75;;;;;;;;;;4973384;28;20046;-53
2024/01/02 03:27:50;;;;;;;12.97;1.63;;;;;;;;;;4980171;28;20050;-51
2024/01/02 03:30:18;;;;;;;22.50;3.30;;;;;;;;;;4971888;28;20038;-54
2024/01/02 03:32:48;;;;;;;14.38;2.25;;;;;;;;;;4913342;28;20754;-50
2024/01/02 03:35:17;;;;;;;20.90;2.13;;;;;;;;;;4943438;28;20057;-56
2024/01/02 03:37:45;;;;;;;18.23;2.88;;;;;;;;;;4977471;28;20646;-56
2024/01/02 03:40:14;;;;;;;21.17;2.33;;;;;;;;;;4973336;28;20060;-56
2024/01/02 03:42:44;;;;;;;23.63;2.78;;;;;;;;;;4982896;28;20126;-56
2024/01/02 03:45:11;;;;;;;22.42;3.22;;;;;;;;;;4949034;28;20062;-57
2024/01/02 03:47:41;;;;;;;24.58;3.35;;;;;;;;;;4971896;28;20034;-56
2024/01/02 03:50:10;;;;;;;21.80;2.58;;;;;;;;;;4973214;28;20049;-55
2024/01/02 03:52:38;;;;;;;19.27;2.67;;;;;;;;;;4979990;28;20076;-56
2024/01/02 03:55:06;;;;;;;25.40;2.80;;;;;;;;;;4962186;28;20053;-54
2024/01/02 03:57:35;;;;;;;15.63;2.17;;;;;;;;;;4964612;28;20049;-51
2024/01/02 04:00:04;;;;;;;24.25;2.92;;;;;;;;;;4971640;28;20451;-55
2024/01/02 04:02:32;;;;;;;30.13;3.88;;;;;;;;;;4982399;28;20042;-53
2024/01/02 04:05:00;;;;;;;17.30;2.77;;;;;;;;;;4967467;28;20155;-53
2024/01/02 04:07:29;;;;;;;22.05;2.75;;;;;;;;;;4984740;28;20038;-53
2024/01/02 04:09:57;;;;;;;19.33;2.38;;;;;;;;;;4961173;28;20046;-54
2024/01/02 04:12:25;;;;;;;17.83;2.10;;;;;;;;;;4981113;28;20061;-55
2024/01/02 04:14:52;;;;;;;18.48;2.25;;;;;;;;;;4973689;28;20042;-50
2024/01/02 04:17:25;;;;;;;16.03;3.10;;;;;;;;;;4956122;28;20317;-56
2024/01/02 04:19:52;;;;;;;24.10;3.58;;;;;;;;;;4971098;28;20528;-52
2024/01/02 04:22:20;;;;;;;19.67;2.30;;;;;;;;;;4973108;28;20042;-55
2024/01/02 04:24:50;;;;;;;21.75;2.88;;;;;;;;;;4972677;28;20046;-52
2024/01/02 04:27:18;;;;;;;16.08;2.63;;;;;;;;;;4974638;28;20041;-53
2024/01/02 04:29:45;;;;;;;20.07;2.20;;;;;;;;;;4978296;28;20471;-56
2024/01/02 04:32:16;;;;;;;20.63;2.55;;;;;;;;;;4965854;28;20272;-57
2024/01/02 04:34:43;;;;;;;21.40;2.95;;;;;;;;;;4932514;28;20177;-53
2024/01/02 04:37:11;;;;;;;22.63;2.80;;;;;;;;;;4975472;28;20048;-52
2024/01/02 04:39:40;;;;;;;22.63;2.80;;;;;;;;;;4968356;28;20038;-53
2024/01/02 04:42:09;;;;;;;23.00;2.83;;;;;;;;;;4983182;28;20420;-48
2024/01/02 04:44:37;;;;;;;27.83;3.00;;;;;;;;;;4968027;28;20046;-51
2024/01/02 04:47:05;;;;;;;22.83;3.47;;;;;;;;;;4983760;28;20034;-51
2024/01/02 04:49:33;;;;;;;27.88;2.92;;;;;;;;;;4962336;28;20844;-55
2024/01/02 04:52:01;;;;;;;25.10;3.35;;;;;;;;;;4964116;28;20579;-48
2024/01/02 04:54:29;;;;;;;21.03;2.80;;;;;;;;;;4975993;28;20042;-49
2024/01/02 04:56:58;;;;;;;19.27;2.80;;;;;;;;;;4977231;28;20500;-55
2024/01/02 04:59:27;;;;;;;29.15;3.10;;;;;;;;;;4978726;28;20061;-49
2024/01/02 05:01:55;;;;;;;22.85;2.92;;;;;;;;;;4974595;28;20045;-50
2024/01/02 05:04:22;;;;;;;22.80;3.17;;;;;;;;;;4952021;28;20046;-51
2024/01/02 05:06:50;;;;;;;18.20;2.70;;;;;;;;;;4973584;28;20594;-51
2024/01/02 05:09:18;;;;;;;21.88;2.13;;;;;;;;;;4971757;28;20037;-51
2024/01/02 05:11:48;;;;;;;25.33;3.35;;;;;;;;;;4975290;28;20596;-51
2024/01/02 05:14:17;;;;;;;20.30;3.17;;;;;;;;;;4976460;28;20034;-48
2024/01/02 05:16:46;;;;;;;26.85;3.15;;;;;;;;;;4971078;28;20070;-52
2024/01/02 05:19:14;;;;;;;20.10;3.30;;;;;;;;;;4970758;28;20037;-49
2024/01/02 05:21:42;;;;;;;20.77;2.63;;;;;;;;;;4969598;28;20038;-52
2024/01/02 05:24:09;;;;;;;21.75;2.97;;;;;;;;;;4977745;28;20037;-50
2024/01/02 05:26:37;;;;;;;21.95;2.97;;;;;;;;;;4973628;28;20408;-52
2024/01/02 05:29:06;;;;;;;23.80;3.22;;;;;;;;;;4971148;28;20505;-51
2024/01/02 05:31:33;;;;;;;28.80;3.40;;;;;;;;;;4970019;28;20060;-52
2024/01/02 05:34:03;;;;;;;28.45;3.17;;;;;;;;;;4908080;28;22828;-54
2024/01/02 05:36:30;;;;;;;26.55;2.97;;;;;;;;;;4960075;28;20564;-52
2024/01/02 05:38:58;;;;;;;22.95;2.65;;;;;;;;;;4977426;28;20133;-50
2024/01/02 05:41:26;;;;;;;25.15;3.63;;;;;;;;;;4970006;28;20038;-53
2024/01/02 05:43:53;;;;;;;21.30;3.30;;;;;;;;;;4973419;28;20034;-52
2024/01/02 05:46:21;;;;;;;28.90;3.65;;;;;;;;;;4960266;28;20038;-50
2024/01/02 05:48:49;;;;;;;21.00;2.58;;;;;;;;;;4967326;28;20038;-51
2024/01/02 05:51:19;;;;;;;22.90;2.85;;;;;;;;;;4957696;28;20119;-52
2024/01/02 05:53:47;;;;;;;22.40;3.50;;;;;;;;;;4964562;28;20058;-54
2024/01/02 05:56:18;;;;;;;18.20;2.93;;;;;;;;;;4974008;28;20401;-51
2024/01/02 05:58:46;;;;;;;19.02;3.03;;;;;;;;;;4952576;28;20135;-54
2024/01/02 06:01:15;;;;;;;24.17;3.10;;;;;;;;;;4967539;28;20427;-51
2024/01/02 06:03:43;;;;;;;29.98;2.47;;;;;;;;;;4965504;28;20544;-51
2024/01/02 06:06:11;;;;;;;20.52;3.15;;;;;;;;;;4970751;28;20121;-48
2024/01/02 06:08:45;;;;;;;22.67;2.33;;;;;;;;;;4977736;28;20061;-53
2024/01/02 06:11:14;;;;;;;29.13;3.67;;;;;;;;;;4974515;28;20050;-50
2024/01/02 06:13:42;;;;;;;18.17;2.38;;;;;;;;;;4962759;28;20049;-52
2024/01/02 06:16:10;;;;;;;22.52;2.50;;;;;;;;;;4979469;28;20042;-50
2024/01/02 06:18:39;;;;;;;19.73;2.47;;;;;;;;;;4967299;28;20030;-53
2024/01/02 06:21:08;;;;;;;15.00;3.17;;;;;;;;;;4948452;28;20057;-54
2024/01/02 06:23:37;;;;;;;22.00;2.55;;;;;;;;;;4976310;28;21219;-52
2024/01/02 06:26:18;;;;;;;22.80;2.00;;;;;;;;;;4964904;28;20046;-49
2024/01/02 06:28:46;;;;;;;22.17;2.45;;;;;;;;;;4973237;28;20038;-58
2024/01/02 06:31:14;;;;;;;13.68;1.98;;;;;;;;;;4966361;28;20034;-52
2024/01/02 06:33:45;;;;;;;14.17;2.43;;;;;;;;;;4900386;28;20056;-55
2024/01/02 06:36:14;;;;;;;19.38;2.40;;;;;;;;;;4954923;28;20053;-51
2024/01/02 06:38:42;;;;;;;13.85;2.80;;;;;;;;;;4970522;28;20323;-52
2024/01/02 06:41:10;;;;;;;20.42;2.03;;;;;;;;;;4951421;28;21021;-52
2024/01/02 06:43:39;;;;;;;17.85;2.42;;;;;;;;;;4957423;28;20370;-52
2024/01/02 06:46:07;;;;;;;16.83;2.03;;;;;;;;;;4961176;28;20042;-57
2024/01/02 06:48:35;;;;;;;29.00;3.25;;;;;;;;;;4974016;28;20041;-55
2024/01/02 06:51:03;;;;;;;20.30;2.58;;;;;;;;;;4966155;28;20038;-54
2024/01/02 06:53:31;;;;;;;22.27;2.50;;;;;;;;;;4968934;28;20052;-56
2024/01/02 06:55:59;;;;;;;18.85;2.67;;;;;;;;;;4964219;28;21545;-52
2024/01/02 06:58:27;;;;;;;23.07;2.13;;;;;;;;;;4966099;28;20053;-53
2024/01/02 07:00:59;;;;;;;21.90;4.05;;;;;;;;;;4966421;28;20129;-50
2024/01/02 07:03:27;;;;;;;25.75;2.83;;;;;;;;;;4956324;28;20113;-55
2024/01/02 07:05:55;;;;;;;22.52;3.05;;;;;;;;;;4957082;28;20041;-56
2024/01/02 07:08:23;;;;;;;20.55;2.40;;;;;;;;;;4966496;28;20126;-54
2024/01/02 07:10:50;;;;;;;18.10;2.43;;;;;;;;;;4967381;28;20069;-55
2024/01/02 07:13:18;;;;;;;22.55;2.53;;;;;;;;;;4959543;28;20057;-56
2024/01/02 07:15:46;;;;;;;23.65;2.28;;;;;;;;;;4965892;28;20049;-50
2024/01/02 07:18:15;;;;;;;15.52;3.00;;;;;;;;;;4949910;28;20049;-55
2024/01/02 07:20:43;;;;;;;21.52;2.50;;;;;;;;;;4962320;28;20065;-53
2024/01/02 07:23:11;;;;;;;18.23;2.67;;;;;;;;;;4955830;28;20033;-54
2024/01/02 07:25:39;;;;;;;15.02;1.85;;;;;;;;;;4966342;28;20121;-55
2024/01/02 07:28:06;;;;;;;20.50;2.72;;;;;;;;;;4961333;28;21529;-55
2024/01/02 07:30:35;;;;;;;21.95;3.00;;;;;;;;;;4962655;28;20042;-53
2024/01/02 07:33:03;;;;;;;14.20;2.05;;;;;;;;;;4920166;28;20124;-54
2024/01/02 07:35:32;;;;;;;18.73;2.37;;;;;;;;;;4920381;28;20049;-51
2024/01/02 07:38:01;;;;;;;15.32;1.80;;;;;;;;;;4965012;28;20052;-51
2024/01/02 07:40:30;;;;;;;18.98;2.08;;;;;;;;;;4962706;28;20048;-51
2024/01/02 07:42:58;;;;;;;17.98;2.20;;;;;;;;;;4973247;28;20045;-53
2024/01/02 07:45:26;;;;;;;13.70;1.92;;;;;;;;;;4978058;28;20046;-51
2024/01/02 07:47:54;;;;;;;18.47;1.83;;;;;;;;;;4962337;28;20108;-50
2024/01/02 07:50:22;;;;;;;19.90;2.60;;;;;;;;;;4976901;28;20046;-48
2024/01/02 07:52:53;;;;;;;18.65;1.85;;;;;;;;;;4959664;28;20076;-49
2024/01/02 07:55:21;;;;;;;13.75;1.70;;;;;;;;;;4969609;28;20045;-53
2024/01/02 07:57:49;;;;;;;14.00;2.17;;;;;;;;;;4974113;28;20065;-50
2024/01/02 08:00:17;;;;;;;16.07;1.80;;;;;;;;;;4960344;28;20101;-51
2024/01/02 08:02:45;;;;;;;17.25;1.95;;;;;;;;;;4966525;28;20065;-52
2024/01/02 08:05:13;;;;;;;21.23;2.08;;;;;;;;;;4962794;28;20133;-48
2024/01/02 08:07:41;;;;;;;17.67;2.15;;;;;;;;;;4975288;28;20052;-53
2024/01/02 08:10:11;;;;;;;23.16;2.54;;;;;;;;;;4621408;28;10000401;-53
2024/01/02 08:12:40;;;;;;;18.93;2.33;;;;;;;;;;4628846;28;10001325;-53
2024/01/02 08:15:08;;;;;;;20.65;2.63;;;;;;;;;;4963808;28;20500;-50
2024/01/02 08:17:36;;;;;;;15.27;2.03;;;;;;;;;;4971149;28;20042;-53
2024/01/02 08:20:04;;;;;;;17.88;2.38;;;;;;;;;;4946213;28;20399;-50
2024/01/02 08:22:31;;;;;;;12.50;1.90;;;;;;;;;;4978961;28;20050;-53
2024/01/02 08:24:59;;;;;;;12.60;1.40;;;;;;;;;;4955597;28;20767;-52
2024/01/02 08:27:28;;;;;;;15.25;1.60;;;;;;;;;;4974952;28;20041;-50
2024/01/02 08:29:56;;;;;;;16.33;1.75;;;;;;;;;;4969113;28;20046;-52
2024/01/02 08:32:24;;;;;;;18.80;1.83;;;;;;;;;;4928385;28;20661;-51
2024/01/02 08:34:53;;;;;;;14.35;1.80;;;;;;;;;;4926023;28;20519;-51
2024/01/02 08:37:21;;;;;;;17.13;1.67;;;;;;;;;;4959601;28;20038;-51
2024/01/02 08:39:49;;;;;;;10.63;1.45;;;;;;;;;;4967797;28;20038;-52
2024/01/02 08:42:16;;;;;;;14.02;1.35;;;;;;;;;;4969491;28;20512;-50
2024/01/02 08:44:46;;;;;;;10.95;1.63;;;;;;;;;;4959310;28;20034;-50
2024/01/02 08:47:14;;;;;;;13.05;1.20;;;;;;;;;;4974455;28;20042;-53
2024/01/02 08:49:43;;;;;;;14.73;1.30;;;;;;;;;;4968395;28;20124;-51
2024/01/02 08:52:11;;;;;;;7.00;1.10;;;;;;;;;;4974517;28;20045;-52
2024/01/02 08:54:39;;;;;;;15.10;1.63;;;;;;;;;;4970198;28;20484;-48
2024/01/02 08:57:07;;;;;;;7.17;1.37;;;;;;;;;;4622056;28;10000194;-47
2024/01/02 08:59:35;;;;;;;12.70;1.83;;;;;;;;;;4982500;28;20409;-50
2024/01/02 09:02:04;;;;;;;10.05;1.60;;;;;;;;;;4961953;28;21655;-49
2024/01/02 09:04:32;;;;;;;12.93;1.90;;;;;;;;;;4968417;28;20124;-49
2024/01/02 09:06:59;;;;;;;9.73;1.00;;;;;;;;;;4948795;28;20532;-54
2024/01/02 09:09:28;;;;;;;8.85;1.60;;;;;;;;;;4961106;28;20042;-52
2024/01/02 09:11:56;;;;;;;9.07;1.02;;;;;;;;;;4959731;28;20085;-50
2024/01/02 09:14:24;;;;;;;5.32;1.02;;;;;;;;;;4974750;28;20515;-53
2024/01/02 09:16:52;;;;;;;4.33;0.60;;;;;;;;;;4954689;28;20053;-53
2024/01/02 09:19:21;;;;;;;8.98;0.80;;;;;;;;;;4956364;28;20038;-48
2024/01/02 09:21:49;;;;;;;5.60;0.70;;;;;;;;;;4950484;28;21040;-50
2024/01/02 09:24:19;;;;;;;7.38;0.75;;;;;;;;;;4925058;28;20725;-55
2024/01/02 09:26:50;;;;;;;4.13;0.68;;;;;;;;;;4925606;28;20153;-47
2024/01/02 09:29:17;;;;;;;4.90;0.80;;;;;;;;;;4958898;28;20272;-54
2024/01/02 09:31:46;;;;;;;6.32;1.55;;;;;;;;;;4943708;28;20042;-55
2024/01/02 09:34:14;;;;;;;4.78;0.60;;;;;;;;;;4871937;28;20061;-51
2024/01/02 09:36:43;;;;;;;3.28;0.32;;;;;;;;;;4948483;28;20526;-52
2024/01/02 09:39:13;;;;;;;4.00;0.50;;;;;;;;;;4930791;28;20286;-55
2024/01/02 09:42:00;;;;;;;2.67;0.47;;;;;;;;;;4939203;28;20042;-52
2024/01/02 09:44:53;;;;;;;4.15;0.60;;;;;;;;;;4945322;28;20057;-55
2024/01/02 09:47:32;;;;;;;4.95;0.60;;;;;;;;;;4941046;28;20169;-54
2024/01/02 09:50:05;;;;;;;2.33;0.40;;;;;;;;;;4960483;28;20054;-53
2024/01/02 09:52:41;;;;;;;3.20;0.40;;;;;;;;;;4928590;28;20504;-51
2024/01/02 09:55:18;;;;;;;2.20;0.50;;;;;;;;;;4956677;28;20045;-55
2024/01/02 09:57:48;;;;;;;1.92;0.20;;;;;;;;;;4948105;28;20081;-52
2024/01/02 10:00:20;;;;;;;1.98;0.30;;;;;;;;;;4958885;28;20042;-51
2024/01/02 10:02:57;;;;;;;2.40;0.30;;;;;;;;;;4931653;28;20046;-54
2024/01/02 10:05:33;;;;;;;3.08;0.30;;;;;;;;;;4945406;28;20046;-52
2024/01/02 10:08:17;;;;;;;2.33;0.20;;;;;;;;;;4962350;28;20046;-53
2024/01/02 10:10:49;;;;;;;1.83;0.20;;;;;;;;;;4966772;28;20030;-52
2024/01/02 10:13:23;;;;;;;2.15;0.20;;;;;;;;;;4977908;28;20045;-51
2024/01/02 10:15:59;;;;;;;3.38;0.20;;;;;;;;;;4946044;28;20044;-52
2024/01/02 10:18:34;;;;;;;2.72;0.30;;;;;;;;;;4966135;28;20038;-50
2024/01/02 10:21:07;;;;;;;2.47;0.40;;;;;;;;;;4971490;28;20125;-51
2024/01/02 10:23:41;;;;;;;3.22;0.40;;;;;;;;;;4964470;28;20119;-54
2024/01/02 10:26:09;;;;;;;3.65;0.28;;;;;;;;;;4965147;28;20041;-51
2024/01/02 10:28:38;;;;;;;4.47;0.43;;;;;;;;;;4953183;28;20129;-55
2024/01/02 10:31:11;;;;;;;2.38;0.45;;;;;;;;;;4968288;28;20042;-53
2024/01/02 10:33:45;;;;;;;5.70;0.57;;;;;;;;;;4932379;28;20042;-56
2024/01/02 10:36:17;;;;;;;2.58;0.40;;;;;;;;;;4963886;28;20089;-56
2024/01/02 10:38:52;;;;;;;5.07;0.60;;;;;;;;;;4972797;28;20551;-52
2024/01/02 10:41:27;;;;;;;6.03;0.85;;;;;;;;;;4981102;28;20042;-53
2024/01/02 10:44:00;;;;;;;7.30;0.60;;;;;;;;;;4968296;28;20041;-53
2024/01/02 10:46:38;;;;;;;5.93;0.50;;;;;;;;;;4992075;28;20057;-53
2024/01/02 10:49:13;;;;;;;2.80;0.45;;;;;;;;;;4964037;28;20196;-52
2024/01/02 10:51:43;;;;;;;3.85;0.52;;;;;;;;;;4947580;28;20038;-57
2024/01/02 10:54:18;;;;;;;3.35;0.40;;;;;;;;;;4970295;28;20237;-56
2024/01/02 10:56:50;;;;;;;7.00;0.50;;;;;;;;;;4964462;28;20042;-55
2024/01/02 10:59:28;;;;;;;3.20;0.40;;;;;;;;;;4277978;28;10000614;-54
2024/01/02 11:02:00;;;;;;;3.00;0.40;;;;;;;;;;4961913;28;20050;-54
2024/01/02 11:04:34;;;;;;;2.90;0.40;;;;;;;;;;4968720;28;20491;-51
2024/01/02 11:07:05;;;;;;;4.85;0.45;;;;;;;;;;4958324;28;20053;-53
2024/01/02 11:09:58;;;;;;;2.88;0.40;;;;;;;;;;4943780;28;20199;-55
2024/01/02 11:12:29;;;;;;;3.95;0.40;;;;;;;;;;4962094;28;20041;-56
2024/01/02 11:14:57;;;;;;;2.17;0.30;;;;;;;;;;4972133;28;20057;-53
2024/01/02 11:17:25;;;;;;;1.83;0.23;;;;;;;;;;4953577;28;20052;-55
2024/01/02 11:19:57;;;;;;;1.40;0.30;;;;;;;;;;4967815;28;20133;-55
2024/01/02 11:22:30;;;;;;;1.85;0.28;;;;;;;;;;4973281;28;20053;-56
2024/01/02 11:25:02;;;;;;;1.98;0.40;;;;;;;;;;4939370;28;20913;-52
2024/01/02 11:27:31;;;;;;;4.80;0.65;;;;;;;;;;4952957;28;20061;-54
2024/01/02 11:30:02;;;;;;;6.03;0.50;;;;;;;;;;4944737;28;20401;-55
2024/01/02 11:32:35;;;;;;;3.55;0.40;;;;;;;;;;4894386;28;20260;-54
2024/01/02 11:35:05;;;;;;;4.60;0.85;;;;;;;;;;4920582;28;20132;-54
2024/01/02 11:37:37;;;;;;;2.72;0.32;;;;;;;;;;4933520;28;21087;-53
2024/01/02 11:40:16;;;;;;;3.50;0.43;;;;;;;;;;4942339;28;20052;-56
2024/01/02 11:42:50;;;;;;;3.23;0.30;;;;;;;;;;4939980;28;20492;-55
2024/01/02 11:45:20;;;;;;;2.65;0.30;;;;;;;;;;4959898;28;20056;-54
2024/01/02 11:47:54;;;;;;;3.42;0.30;;;;;;;;;;4956452;28;20042;-53
2024/01/02 11:50:24;;;;;;;1.95;0.22;;;;;;;;;;4945427;28;20042;-52
2024/01/02 11:52:58;;;;;;;3.63;0.45;;;;;;;;;;4951388;28;20128;-49
2024/01/02 11:55:34;;;;;;;3.80;0.77;;;;;;;;;;4945866;28;20080;-50
2024/01/02 11:58:05;;;;;;;3.47;0.40;;;;;;;;;;4959331;28;20058;-54
2024/01/02 12:00:37;;;;;;;3.70;0.32;;;;;;;;;;4948827;28;20104;-55
2024/01/02 12:03:09;;;;;;;3.35;0.60;;;;;;;;;;4941906;28;20185;-52
2024/01/02 12:05:48;;;;;;;3.17;0.90;;;;;;;;;;4944282;28;20158;-53
2024/01/02 12:08:21;;;;;;;4.20;0.60;;;;;;;;;;4953955;28;20461;-51
2024/01/02 12:10:52;;;;;;;5.60;0.80;;;;;;;;;;4945461;28;20038;-54
2024/01/02 12:13:27;;;;;;;4.45;0.50;;;;;;;;;;4944147;28;20848;-51
2024/01/02 12:15:56;;;;;;;3.95;0.30;;;;;;;;;;4947835;28;20050;-54
2024/01/02 12:18:30;;;;;;;3.38;0.60;;;;;;;;;;4952139;28;20056;-56
2024/01/02 12:21:01;;;;;;;6.30;0.60;;;;;;;;;;4942316;28;20057;-56
2024/01/02 12:23:29;;;;;;;2.78;0.50;;;;;;;;;;4947344;28;20061;-55
2024/01/02 12:26:02;;;;;;;4.55;0.57;;;;;;;;;;4959169;28;20054;-57
2024/01/02 12:28:32;;;;;;;6.10;0.47;;;;;;;;;;4960225;28;20084;-56
2024/01/02 12:31:04;;;;;;;3.87;0.70;;;;;;;;;;4610259;28;10000707;-56
2024/01/02 12:33:36;;;;;;;4.95;0.60;;;;;;;;;;4915928;28;20050;-54
2024/01/02 12:36:23;;;;;;;7.55;0.70;;;;;;;;;;4932729;28;20188;-51
2024/01/02 12:38:52;;;;;;;9.37;1.13;;;;;;;;;;4943670;28;21461;-55
2024/01/02 12:41:24;;;;;;;5.93;0.98;;;;;;;;;;4929395;28;20621;-53
2024/01/02 12:43:57;;;;;;;7.95;1.20;;;;;;;;;;4922658;28;20438;-52
2024/01/02 12:46:33;;;;;;;6.72;1.02;;;;;;;;;;4935892;28;20050;-53
2024/01/02 12:49:07;;;;;;;6.60;0.88;;;;;;;;;;4956593;28;20532;-54
2024/01/02 12:51:45;;;;;;;9.80;0.97;;;;;;;;;;4918969;28;21913;-51
2024/01/02 12:54:14;;;;;;;8.68;0.77;;;;;;;;;;4954197;28;20042;-54
2024/01/02 12:56:44;;;;;;;9.70;1.20;;;;;;;;;;4946339;28;20058;-53
2024/01/02 12:59:12;;;;;;;7.75;0.70;;;;;;;;;;4932751;28;20041;-53
2024/01/02 13:01:41;;;;;;;13.50;1.08;;;;;;;;;;4945714;28;20052;-53
2024/01/02 13:04:15;;;;;;;8.90;1.00;;;;;;;;;;4948150;28;20083;-52
2024/01/02 13:06:46;;;;;;;16.08;1.60;;;;;;;;;;4890271;28;20045;-52
2024/01/02 13:09:16;;;;;;;11.90;1.20;;;;;;;;;;4595870;28;10000071;-51
2024/01/02 13:11:45;;;;;;;14.38;1.60;;;;;;;;;;4926650;28;21833;-53
2024/01/02 13:14:15;;;;;;;6.68;1.20;;;;;;;;;;4941299;28;20046;-52
2024/01/02 13:16:45;;;;;;;11.50;1.30;;;;;;;;;;4923682;28;20052;-50
2024/01/02 13:19:16;;;;;;;15.00;1.80;;;;;;;;;;4962395;28;20046;-50
2024/01/02 13:21:44;;;;;;;13.68;1.20;;;;;;;;;;4935070;28;20034;-55
2024/01/02 13:24:12;;;;;;;14.00;1.50;;;;;;;;;;4955167;28;20504;-50
2024/01/02 13:26:41;;;;;;;11.93;1.50;;;;;;;;;;4942595;28;20049;-55
2024/01/02 13:29:13;;;;;;;9.23;1.13;;;;;;;;;;4961021;28;20077;-52
2024/01/02 13:31:42;;;;;;;14.00;1.93;;;;;;;;;;4952369;28;20044;-55
2024/01/02 13:34:22;;;;;;;9.00;1.08;;;;;;;;;;4872545;28;20042;-55
2024/01/02 13:36:50;;;;;;;10.85;1.55;;;;;;;;;;4953887;28;20165;-51
2024/01/02 13:39:31;;;;;;;12.93;1.00;;;;;;;;;;4932702;28;20719;-52
2024/01/02 13:42:02;;;;;;;17.40;1.67;;;;;;;;;;4967826;28;20053;-53
2024/01/02 13:44:32;;;;;;;12.30;1.60;;;;;;;;;;4963027;28;21138;-52
2024/01/02 13:47:00;;;;;;;10.65;1.00;;;;;;;;;;4976056;28;20180;-49
2024/01/02 13:49:44;;;;;;;14.43;1.55;;;;;;;;;;4951712;28;20041;-54
2024/01/02 13:52:12;;;;;;;12.98;1.65;;;;;;;;;;4972618;28;20480;-52
2024/01/02 13:54:43;;;;;;;11.52;1.67;;;;;;;;;;4945434;28;20042;-54
2024/01/02 13:57:11;;;;;;;10.97;1.80;;;;;;;;;;4952598;28;20820;-55
2024/01/02 13:59:40;;;;;;;8.05;1.10;;;;;;;;;;4956890;28;20508;-55
2024/01/02 14:02:13;;;;;;;15.88;1.58;;;;;;;;;;4968247;28;20126;-53
2024/01/02 14:04:41;;;;;;;11.63;1.38;;;;;;;;;;4963292;28;20034;-55
2024/01/02 14:07:09;;;;;;;12.95;1.33;;;;;;;;;;4959045;28;20038;-53
2024/01/02 14:09:43;;;;;;;13.50;1.20;;;;;;;;;;4957052;28;20096;-53
2024/01/02 14:12:11;;;;;;;8.57;1.48;;;;;;;;;;4961541;28;20046;-53
2024/01/02 14:14:45;;;;;;;4.47;0.70;;;;;;;;;;4957398;28;20125;-53
2024/01/02 14:17:13;;;;;;;3.88;0.70;;;;;;;;;;4976550;28;20037;-51
2024/01/02 14:19:45;;;;;;;9.40;1.00;;;;;;;;;;4961435;28;20404;-51
2024/01/02 14:22:33;;;;;;;5.83;0.70;;;;;;;;;;4970549;28;20045;-51
2024/01/02 14:25:13;;;;;;;6.95;1.10;;;;;;;;;;4951987;28;20132;-50
2024/01/02 14:27:46;;;;;;;3.80;0.68;;;;;;;;;;4963318;28;20045;-52
2024/01/02 14:30:22;;;;;;;4.68;0.35;;;;;;;;;;4962868;28;20041;-49
2024/01/02 14:33:01;;;;;;;3.25;0.30;;;;;;;;;;4913054;28;20717;-50
2024/01/02 14:35:34;;;;;;;2.67;0.30;;;;;;;;;;4893946;28;20073;-51
2024/01/02 14:38:05;;;;;;;3.40;0.50;;;;;;;;;;4970430;28;20105;-51
2024/01/02 14:40:36;;;;;;;2.83;0.30;;;;;;;;;;4957802;28;20045;-52
2024/01/02 14:43:17;;;;;;;2.10;0.25;;;;;;;;;;4958414;28;20558;-48
2024/01/02 14:45:52;;;;;;;1.77;0.25;;;;;;;;;;4952615;28;20034;-50
2024/01/02 14:48:27;;;;;;;1.10;0.20;;;;;;;;;;4945110;28;20056;-51
2024/01/02 14:51:09;;;;;;;1.90;0.20;;;;;;;;;;4973081;28;20061;-55